createdAt,value
2022-10-26T00:01:21.665Z,4.30
2022-10-26T00:03:49.300Z,4.80
2022-10-26T00:06:19.274Z,4.73
2022-10-26T00:08:48.593Z,4.93
2022-10-26T00:11:16.553Z,4.77
2022-10-26T00:13:44.552Z,4.70
2022-10-26T00:16:14.901Z,4.47
2022-10-26T00:18:42.829Z,4.97
2022-10-26T00:21:11.859Z,5.00
2022-10-26T00:23:39.699Z,4.27
2022-10-26T00:26:09.400Z,4.20
2022-10-26T00:28:37.595Z,4.20
2022-10-26T00:31:07.424Z,4.67
2022-10-26T00:33:35.062Z,4.73
2022-10-26T00:36:02.655Z,4.63
2022-10-26T00:38:30.634Z,5.07
2022-10-26T00:43:37.713Z,4.57
2022-10-26T00:46:09.401Z,4.57
2022-10-26T00:48:40.767Z,4.50
2022-10-26T00:51:11.494Z,4.80
2022-10-26T00:53:39.916Z,5.37
2022-10-26T00:56:08.516Z,4.80
2022-10-26T00:58:38.476Z,4.53
2022-10-26T01:01:06.291Z,4.57
2022-10-26T01:03:36.803Z,5.10
2022-10-26T01:06:06.304Z,4.97
2022-10-26T01:08:34.323Z,4.40
2022-10-26T01:11:02.694Z,4.70
2022-10-26T01:13:35.731Z,4.13
2022-10-26T01:16:15.632Z,4.03
2022-10-26T01:18:50.380Z,3.80
2022-10-26T01:21:46.279Z,3.90
2022-10-26T01:24:40.215Z,3.70
2022-10-26T01:27:20.764Z,4.07
2022-10-26T01:30:02.666Z,4.10
2022-10-26T01:32:36.682Z,3.93
2022-10-26T01:35:10.219Z,4.33
2022-10-26T01:37:39.992Z,4.77
2022-10-26T01:40:15.876Z,4.10
2022-10-26T01:42:47.978Z,3.97
2022-10-26T01:45:16.698Z,4.30
2022-10-26T01:47:48.403Z,4.00
2022-10-26T01:50:18.536Z,4.30
2022-10-26T01:52:46.179Z,3.87
2022-10-26T01:55:45.010Z,4.43
2022-10-26T01:58:24.661Z,3.57
2022-10-26T02:01:00.199Z,4.10
2022-10-26T02:03:34.931Z,4.30
2022-10-26T02:06:10.858Z,3.93
2022-10-26T02:08:55.850Z,3.70
2022-10-26T02:11:37.174Z,4.10
2022-10-26T02:14:11.122Z,3.57
2022-10-26T02:16:45.361Z,4.07
2022-10-26T02:19:27.739Z,4.00
2022-10-26T02:22:02.232Z,4.40
2022-10-26T02:24:32.989Z,4.07
2022-10-26T02:27:02.982Z,4.17
2022-10-26T02:29:32.621Z,3.80
2022-10-26T02:32:02.423Z,4.43
2022-10-26T02:34:32.085Z,4.07
2022-10-26T02:37:02.574Z,4.10
2022-10-26T02:39:34.307Z,3.73
2022-10-26T02:42:05.404Z,3.47
2022-10-26T02:44:37.503Z,3.10
2022-10-26T02:47:05.230Z,3.77
2022-10-26T02:49:34.220Z,3.80
2022-10-26T02:52:06.749Z,3.47
2022-10-26T02:54:43.014Z,3.63
2022-10-26T02:57:16.338Z,3.80
2022-10-26T02:59:48.664Z,3.80
2022-10-26T03:02:18.642Z,4.47
2022-10-26T03:04:50.255Z,4.03
2022-10-26T03:07:22.201Z,4.47
2022-10-26T03:09:49.878Z,3.90
2022-10-26T03:12:17.674Z,4.57
2022-10-26T03:14:45.443Z,4.00
2022-10-26T03:17:13.026Z,3.77
2022-10-26T03:19:40.636Z,4.10
2022-10-26T03:22:09.538Z,4.00
2022-10-26T03:24:37.118Z,3.73
2022-10-26T03:27:04.678Z,4.60
2022-10-26T03:29:32.235Z,4.00
2022-10-26T03:31:59.813Z,3.67
2022-10-26T03:34:27.412Z,3.83
2022-10-26T03:36:54.968Z,3.27
2022-10-26T03:39:23.876Z,4.30
2022-10-26T03:41:51.468Z,4.30
2022-10-26T03:44:19.098Z,3.83
2022-10-26T03:46:46.721Z,4.00
2022-10-26T03:49:14.305Z,3.93
2022-10-26T03:51:41.917Z,3.63
2022-10-26T03:54:09.804Z,4.60
2022-10-26T03:56:38.687Z,4.43
2022-10-26T03:59:06.714Z,4.57
2022-10-26T04:01:35.380Z,3.97
2022-10-26T04:04:03.026Z,4.03
2022-10-26T04:06:30.669Z,4.70
2022-10-26T04:09:02.312Z,4.17
2022-10-26T04:11:29.923Z,3.70
2022-10-26T04:13:59.597Z,4.30
2022-10-26T04:16:31.045Z,3.73
2022-10-26T04:19:01.105Z,3.97
2022-10-26T04:21:28.636Z,3.60
2022-10-26T04:23:56.334Z,4.07
2022-10-26T04:26:23.902Z,4.03
2022-10-26T04:28:51.489Z,4.67
2022-10-26T04:31:20.387Z,4.10
2022-10-26T04:33:47.960Z,4.17
2022-10-26T04:36:15.546Z,3.53
2022-10-26T04:38:43.146Z,3.73
2022-10-26T04:41:10.728Z,4.63
2022-10-26T04:43:38.286Z,4.10
2022-10-26T04:46:06.121Z,3.87
2022-10-26T04:48:35.233Z,4.33
2022-10-26T04:51:03.043Z,4.20
2022-10-26T04:53:30.586Z,4.53
2022-10-26T04:55:58.507Z,4.40
2022-10-26T04:58:26.351Z,3.80
2022-10-26T05:00:55.520Z,4.20
2022-10-26T05:03:23.615Z,4.17
2022-10-26T05:05:52.505Z,4.23
2022-10-26T05:08:20.079Z,4.50
2022-10-26T05:10:49.854Z,4.17
2022-10-26T05:13:17.840Z,4.50
2022-10-26T05:15:45.565Z,4.53
2022-10-26T05:18:13.287Z,5.07
2022-10-26T05:20:40.907Z,4.57
2022-10-26T05:23:12.374Z,4.30
2022-10-26T05:25:40.067Z,5.07
2022-10-26T05:28:11.727Z,5.20
2022-10-26T05:30:39.298Z,5.27
2022-10-26T05:33:07.619Z,4.97
2022-10-26T05:35:35.203Z,5.37
2022-10-26T05:38:08.369Z,4.93
2022-10-26T05:40:37.420Z,4.50
2022-10-26T05:43:05.846Z,4.77
2022-10-26T05:45:33.463Z,5.27
2022-10-26T05:48:02.880Z,4.57
2022-10-26T05:50:30.799Z,4.40
2022-10-26T05:52:58.377Z,5.00
2022-10-26T05:55:26.834Z,4.90
2022-10-26T05:57:56.496Z,5.33
2022-10-26T06:00:26.551Z,4.83
2022-10-26T06:03:07.732Z,4.40
2022-10-26T06:05:39.818Z,5.57
2022-10-26T06:08:11.043Z,5.27
2022-10-26T06:10:39.446Z,4.50
2022-10-26T06:13:09.033Z,4.57
2022-10-26T06:15:46.543Z,4.50
2022-10-26T06:18:20.933Z,4.47
2022-10-26T06:20:58.988Z,4.53
2022-10-26T06:23:45.364Z,4.73
2022-10-26T06:26:26.431Z,4.40
2022-10-26T06:29:04.006Z,4.70
2022-10-26T06:31:31.572Z,3.67
2022-10-26T06:34:01.099Z,4.07
2022-10-26T06:36:29.838Z,4.00
2022-10-26T06:39:02.730Z,4.13
2022-10-26T06:41:33.509Z,3.97
2022-10-26T06:44:03.490Z,4.13
2022-10-26T06:46:40.095Z,4.00
2022-10-26T06:49:15.031Z,4.10
2022-10-26T06:51:48.325Z,4.30
2022-10-26T06:54:24.121Z,4.37
2022-10-26T06:56:53.406Z,4.87
2022-10-26T06:59:33.429Z,4.70
2022-10-26T07:02:04.194Z,4.23
2022-10-26T07:04:34.102Z,4.63
2022-10-26T07:07:01.814Z,4.00
2022-10-26T07:09:29.367Z,4.17
2022-10-26T07:11:57.129Z,4.00
2022-10-26T07:14:26.056Z,3.40
2022-10-26T07:16:54.380Z,3.80
2022-10-26T07:19:22.050Z,3.70
2022-10-26T07:21:49.956Z,3.60
2022-10-26T07:24:17.562Z,4.23
2022-10-26T07:26:45.205Z,4.07
2022-10-26T07:29:13.902Z,3.87
2022-10-26T07:31:43.130Z,3.87
2022-10-26T07:34:11.091Z,4.47
2022-10-26T07:36:39.410Z,4.10
2022-10-26T07:39:07.047Z,4.17
2022-10-26T07:41:35.161Z,4.37
2022-10-26T07:44:02.936Z,4.20
2022-10-26T07:46:30.531Z,4.57
2022-10-26T07:48:59.582Z,4.30
2022-10-26T07:51:27.120Z,4.27
2022-10-26T07:53:54.701Z,6.67
2022-10-26T07:56:22.777Z,7.30
2022-10-26T07:58:53.164Z,5.73
2022-10-26T08:01:20.959Z,5.13
2022-10-26T08:03:48.999Z,5.30
2022-10-26T08:06:17.920Z,4.47
2022-10-26T08:08:47.654Z,4.97
2022-10-26T08:11:15.788Z,4.63
2022-10-26T08:13:43.790Z,4.53
2022-10-26T08:16:11.837Z,4.07
2022-10-26T08:18:39.566Z,4.07
2022-10-26T08:21:11.571Z,4.77
2022-10-26T08:23:43.021Z,4.00
2022-10-26T08:26:11.740Z,3.90
2022-10-26T08:28:40.166Z,4.20
2022-10-26T08:31:08.244Z,4.20
2022-10-26T08:33:35.868Z,4.20
2022-10-26T08:36:06.174Z,3.33
2022-10-26T08:38:34.517Z,3.60
2022-10-26T08:41:09.110Z,3.70
2022-10-26T08:43:41.918Z,3.53
2022-10-26T08:46:14.742Z,4.23
2022-10-26T08:48:47.228Z,4.77
2022-10-26T08:51:21.495Z,5.37
2022-10-26T08:53:55.476Z,4.33
2022-10-26T08:56:27.297Z,4.00
2022-10-26T08:58:58.170Z,3.73
2022-10-26T09:01:26.308Z,3.93
2022-10-26T09:03:54.049Z,3.83
2022-10-26T09:06:27.563Z,3.83
2022-10-26T09:09:03.472Z,3.67
2022-10-26T09:11:52.720Z,3.53
2022-10-26T09:14:24.804Z,3.37
2022-10-26T09:17:05.719Z,3.47
2022-10-26T09:19:49.421Z,3.17
2022-10-26T09:22:25.037Z,3.37
2022-10-26T09:24:55.972Z,3.93
2022-10-26T09:27:29.733Z,3.53
2022-10-26T09:30:01.265Z,4.03
2022-10-26T09:32:42.622Z,3.13
2022-10-26T09:35:17.246Z,3.67
2022-10-26T09:37:50.327Z,4.20
2022-10-26T09:40:23.727Z,3.27
2022-10-26T09:42:59.314Z,3.57
2022-10-26T09:45:32.111Z,3.37
2022-10-26T09:48:07.472Z,3.27
2022-10-26T09:50:37.901Z,3.20
2022-10-26T09:53:06.154Z,3.20
2022-10-26T09:55:36.721Z,4.00
2022-10-26T09:58:13.403Z,4.23
2022-10-26T10:00:43.043Z,3.70
2022-10-26T10:03:20.699Z,3.80
2022-10-26T10:05:52.826Z,3.33
2022-10-26T10:08:23.131Z,3.03
2022-10-26T10:10:59.972Z,3.20
2022-10-26T10:13:31.459Z,3.10
2022-10-26T10:16:05.248Z,2.77
2022-10-26T10:18:33.775Z,2.53
2022-10-26T10:21:02.043Z,2.93
2022-10-26T10:23:32.453Z,3.13
2022-10-26T10:26:01.974Z,2.43
2022-10-26T10:28:31.696Z,2.70
2022-10-26T10:31:01.071Z,2.27
2022-10-26T10:33:37.792Z,2.77
2022-10-26T10:36:09.941Z,2.50
2022-10-26T10:38:40.235Z,2.17
2022-10-26T10:41:17.827Z,2.43
2022-10-26T10:43:50.478Z,2.60
2022-10-26T10:46:23.910Z,2.43
2022-10-26T10:48:56.153Z,2.60
2022-10-26T10:51:26.667Z,2.43
2022-10-26T10:53:56.740Z,2.53
2022-10-26T10:56:35.318Z,2.80
2022-10-26T10:59:23.205Z,2.30
2022-10-26T11:01:57.211Z,3.00
2022-10-26T11:04:52.409Z,2.35
2022-10-26T11:07:23.979Z,3.42
2022-10-26T11:12:31.479Z,2.47
2022-10-26T11:15:06.086Z,2.70
2022-10-26T11:17:39.704Z,2.80
2022-10-26T11:20:15.069Z,2.73
2022-10-26T11:23:00.979Z,2.40
2022-10-26T11:25:34.343Z,2.40
2022-10-26T11:28:06.889Z,2.63
2022-10-26T11:30:40.731Z,2.80
2022-10-26T11:33:16.996Z,2.80
2022-10-26T11:35:48.075Z,3.37
2022-10-26T11:38:28.253Z,2.40
2022-10-26T11:41:14.971Z,3.03
2022-10-26T11:43:46.498Z,2.07
2022-10-26T11:46:19.465Z,2.60
2022-10-26T11:48:55.510Z,2.50
2022-10-26T11:51:39.827Z,2.47
2022-10-26T11:54:13.098Z,2.50
2022-10-26T11:56:47.016Z,1.80
2022-10-26T11:59:20.509Z,1.87
2022-10-26T12:01:52.095Z,2.23
2022-10-26T12:04:22.308Z,2.10
2022-10-26T12:06:57.025Z,1.80
2022-10-26T12:09:29.988Z,2.37
2022-10-26T12:12:07.746Z,1.97
2022-10-26T12:14:40.158Z,1.57
2022-10-26T12:17:13.854Z,1.73
2022-10-26T12:19:47.335Z,2.00
2022-10-26T12:22:17.784Z,1.93
2022-10-26T12:24:47.047Z,1.97
2022-10-26T12:27:50.629Z,2.13
2022-10-26T12:30:28.214Z,1.80
2022-10-26T12:32:59.276Z,1.48
2022-10-26T12:35:38.991Z,1.48
2022-10-26T12:38:51.862Z,1.70
2022-10-26T12:41:25.084Z,1.52
2022-10-26T12:44:06.114Z,2.40
2022-10-26T12:46:40.912Z,2.15
2022-10-26T12:49:57.199Z,1.65
2022-10-26T12:52:35.943Z,1.60
2022-10-26T12:55:48.707Z,1.98
2022-10-26T12:58:32.677Z,2.22
2022-10-26T13:01:31.800Z,3.03
2022-10-26T13:04:11.312Z,2.40
2022-10-26T13:06:53.958Z,3.88
2022-10-26T13:09:25.340Z,3.60
2022-10-26T13:11:55.573Z,3.88
2022-10-26T13:14:26.784Z,4.10
2022-10-26T13:16:54.691Z,3.83
2022-10-26T13:19:28.245Z,3.92
2022-10-26T13:21:59.879Z,2.58
2022-10-26T13:24:31.868Z,2.17
2022-10-26T13:27:26.507Z,2.00
2022-10-26T13:30:20.964Z,2.67
2022-10-26T13:32:55.256Z,1.90
2022-10-26T13:35:25.891Z,2.47
2022-10-26T13:37:55.890Z,2.65
2022-10-26T13:40:27.025Z,2.42
2022-10-26T13:42:58.114Z,3.13
2022-10-26T13:45:29.091Z,2.10
2022-10-26T13:48:02.411Z,2.10
2022-10-26T13:50:38.881Z,2.60
2022-10-26T13:53:11.169Z,1.97
2022-10-26T13:55:49.179Z,2.17
2022-10-26T13:58:22.889Z,2.30
2022-10-26T14:01:05.828Z,2.50
2022-10-26T14:03:33.493Z,2.20
2022-10-26T14:06:01.831Z,2.17
2022-10-26T14:08:29.528Z,2.30
2022-10-26T14:11:00.451Z,2.03
2022-10-26T14:13:31.667Z,2.17
2022-10-26T14:16:00.230Z,2.50
2022-10-26T14:18:31.301Z,2.67
2022-10-26T14:21:02.356Z,2.63
2022-10-26T14:23:34.625Z,2.30
2022-10-26T14:26:03.999Z,2.20
2022-10-26T14:28:34.313Z,2.43
2022-10-26T14:31:18.036Z,2.10
2022-10-26T14:33:47.989Z,2.10
2022-10-26T14:36:16.724Z,1.83
2022-10-26T14:38:47.585Z,2.10
2022-10-26T14:41:19.247Z,3.00
2022-10-26T14:43:47.344Z,2.20
2022-10-26T14:46:17.282Z,2.70
2022-10-26T14:48:54.465Z,2.60
2022-10-26T14:51:26.302Z,2.70
2022-10-26T14:53:55.414Z,2.07
2022-10-26T14:56:28.693Z,2.10
2022-10-26T14:58:57.634Z,1.63
2022-10-26T15:01:32.108Z,1.20
2022-10-26T15:04:05.645Z,1.20
2022-10-26T15:06:38.558Z,1.83
2022-10-26T15:09:06.865Z,1.30
2022-10-26T15:11:36.263Z,1.80
2022-10-26T15:14:04.192Z,1.20
2022-10-26T15:16:35.630Z,1.50
2022-10-26T15:19:10.311Z,1.90
2022-10-26T15:21:41.022Z,1.70
2022-10-26T15:24:27.299Z,2.10
2022-10-26T15:26:56.890Z,1.40
2022-10-26T15:29:42.454Z,1.67
2022-10-26T15:32:36.896Z,1.50
2022-10-26T15:35:30.483Z,1.60
2022-10-26T15:38:00.770Z,1.73
2022-10-26T15:40:30.489Z,1.70
2022-10-26T15:43:01.368Z,2.10
2022-10-26T15:45:32.863Z,1.70
2022-10-26T15:48:16.654Z,1.73
2022-10-26T15:50:44.340Z,1.70
2022-10-26T15:53:18.094Z,1.80
2022-10-26T15:55:45.734Z,2.43
2022-10-26T15:58:15.754Z,2.10
2022-10-26T16:00:43.670Z,2.00
2022-10-26T16:03:14.530Z,1.65
2022-10-26T16:05:42.213Z,1.80
2022-10-26T16:08:17.069Z,1.60
2022-10-26T16:10:46.219Z,8.00
2022-10-26T16:13:15.758Z,2.93
2022-10-26T16:15:43.503Z,5.07
2022-10-26T16:18:11.075Z,4.90
2022-10-26T16:20:40.739Z,3.57
2022-10-26T16:23:08.517Z,2.67
2022-10-26T16:25:42.543Z,2.13
2022-10-26T16:28:11.827Z,2.03
2022-10-26T16:33:13.725Z,2.53
2022-10-26T16:35:41.392Z,1.90
2022-10-26T16:38:09.745Z,1.80
2022-10-26T16:40:37.373Z,2.30
2022-10-26T16:43:05.029Z,2.00
2022-10-26T16:45:32.627Z,2.97
2022-10-26T16:48:05.850Z,3.13
2022-10-26T16:50:36.295Z,3.60
2022-10-26T16:53:04.294Z,3.47
2022-10-26T16:55:31.986Z,3.00
2022-10-26T16:57:59.710Z,2.80
2022-10-26T17:00:27.280Z,2.40
2022-10-26T17:02:54.903Z,2.83
2022-10-26T17:05:23.919Z,4.63
2022-10-26T17:07:51.832Z,4.60
2022-10-26T17:10:19.633Z,4.23
2022-10-26T17:12:47.525Z,3.13
2022-10-26T17:15:17.400Z,3.87
2022-10-26T17:17:47.518Z,4.13
2022-10-26T17:20:15.269Z,3.43
2022-10-26T17:22:44.220Z,3.83
2022-10-26T17:25:11.844Z,2.60
2022-10-26T17:27:43.486Z,4.03
2022-10-26T17:30:15.113Z,3.30
2022-10-26T17:32:42.774Z,2.87
2022-10-26T17:35:10.379Z,3.50
2022-10-26T17:37:40.057Z,4.30
2022-10-26T17:40:10.140Z,3.83
2022-10-26T17:42:37.709Z,4.40
2022-10-26T17:45:05.959Z,3.63
2022-10-26T17:47:33.567Z,3.80
2022-10-26T17:50:01.187Z,3.90
2022-10-26T17:52:29.040Z,4.10
2022-10-26T17:54:59.212Z,3.63
2022-10-26T17:57:30.844Z,3.77
2022-10-26T17:59:58.384Z,4.10
2022-10-26T18:02:26.410Z,4.17
2022-10-26T18:04:54.190Z,4.40
2022-10-26T18:07:21.930Z,3.83
2022-10-26T18:09:49.548Z,4.23
2022-10-26T18:12:17.178Z,3.93
2022-10-26T18:14:46.150Z,3.80
2022-10-26T18:17:13.697Z,3.03
2022-10-26T18:19:41.263Z,4.40
2022-10-26T18:22:08.859Z,2.43
2022-10-26T18:24:36.531Z,2.40
2022-10-26T18:27:04.143Z,2.40
2022-10-26T18:29:33.077Z,2.13
2022-10-26T18:32:04.272Z,2.80
2022-10-26T18:34:31.843Z,2.77
2022-10-26T18:36:59.441Z,3.40
2022-10-26T18:39:27.055Z,3.10
2022-10-26T18:41:54.622Z,3.23
2022-10-26T18:44:22.733Z,4.10
2022-10-26T18:46:51.942Z,3.80
2022-10-26T18:49:21.074Z,3.30
2022-10-26T18:51:49.015Z,2.93
2022-10-26T18:54:16.699Z,2.70
2022-10-26T18:56:44.259Z,2.60
2022-10-26T18:59:12.940Z,2.80
2022-10-26T19:01:42.183Z,3.23
2022-10-26T19:04:11.374Z,3.90
2022-10-26T19:06:45.018Z,3.30
2022-10-26T19:09:12.603Z,3.30
2022-10-26T19:11:42.230Z,3.20
2022-10-26T19:14:10.253Z,3.63
2022-10-26T19:16:47.508Z,3.63
2022-10-26T19:19:16.512Z,3.97
2022-10-26T19:21:46.824Z,4.57
2022-10-26T19:24:18.829Z,6.77
2022-10-26T19:26:46.964Z,6.03
2022-10-26T19:29:16.622Z,5.13
2022-10-26T19:31:44.689Z,4.60
2022-10-26T19:34:13.389Z,5.40
2022-10-26T19:36:44.779Z,4.20
2022-10-26T19:39:15.243Z,4.47
2022-10-26T19:41:43.395Z,5.07
2022-10-26T19:44:11.867Z,4.57
2022-10-26T19:46:39.750Z,5.03
2022-10-26T19:49:08.097Z,5.03
2022-10-26T19:51:35.825Z,5.00
2022-10-26T19:54:05.938Z,5.40
2022-10-26T19:56:36.199Z,4.67
2022-10-26T19:59:04.769Z,4.80
2022-10-26T20:01:32.821Z,4.10
2022-10-26T20:04:02.273Z,4.60
2022-10-26T20:06:30.671Z,4.80
2022-10-26T20:08:58.438Z,4.80
2022-10-26T20:11:25.994Z,5.30
2022-10-26T20:13:55.819Z,5.67
2022-10-26T20:16:23.464Z,5.33
2022-10-26T20:18:51.053Z,6.47
2022-10-26T20:21:18.855Z,5.67
2022-10-26T20:23:46.882Z,6.10
2022-10-26T20:26:18.453Z,5.40
2022-10-26T20:28:48.084Z,4.83
2022-10-26T20:31:17.145Z,4.53
2022-10-26T20:33:44.705Z,5.03
2022-10-26T20:36:12.398Z,4.30
2022-10-26T20:38:40.896Z,4.07
2022-10-26T20:41:12.166Z,4.23
2022-10-26T20:43:41.315Z,4.57
2022-10-26T20:46:11.516Z,4.40
2022-10-26T20:48:41.023Z,4.80
2022-10-26T20:51:16.744Z,4.37
2022-10-26T20:53:52.388Z,4.00
2022-10-26T20:56:24.822Z,4.17
2022-10-26T20:58:54.671Z,5.27
2022-10-26T21:01:25.348Z,5.27
2022-10-26T21:03:54.838Z,5.23
2022-10-26T21:06:23.080Z,5.20
2022-10-26T21:08:51.548Z,5.83
2022-10-26T21:11:20.402Z,5.80
2022-10-26T21:13:49.889Z,6.07
2022-10-26T21:16:18.429Z,5.40
2022-10-26T21:18:46.173Z,5.53
2022-10-26T21:21:15.119Z,5.27
2022-10-26T21:23:42.836Z,6.60
2022-10-26T21:26:10.883Z,5.97
2022-10-26T21:28:41.371Z,6.07
2022-10-26T21:31:11.023Z,7.10
2022-10-26T21:33:38.988Z,6.43
2022-10-26T21:36:08.898Z,7.27
2022-10-26T21:38:37.878Z,5.83
2022-10-26T21:41:06.578Z,6.73
2022-10-26T21:43:34.913Z,6.70
2022-10-26T21:46:03.928Z,6.87
2022-10-26T21:48:32.815Z,8.07
2022-10-26T21:51:02.537Z,7.63
2022-10-26T21:53:30.674Z,6.63
2022-10-26T21:56:03.020Z,6.17
2022-10-26T21:58:31.415Z,6.33
2022-10-26T22:01:05.882Z,6.83
2022-10-26T22:03:33.783Z,7.40
2022-10-26T22:06:01.488Z,6.63
2022-10-26T22:08:29.106Z,6.93
2022-10-26T22:10:57.301Z,6.20
2022-10-26T22:13:26.308Z,6.43
2022-10-26T22:16:02.034Z,6.30
2022-10-26T22:18:29.611Z,7.10
2022-10-26T22:20:58.172Z,6.43
2022-10-26T22:23:26.068Z,6.73
2022-10-26T22:25:53.684Z,6.50
2022-10-26T22:28:21.298Z,7.33
2022-10-26T22:30:50.215Z,6.83
2022-10-26T22:33:17.754Z,6.43
2022-10-26T22:35:45.362Z,6.57
2022-10-26T22:38:12.978Z,6.13
2022-10-26T22:40:40.550Z,6.33
2022-10-26T22:43:08.145Z,6.73
2022-10-26T22:45:35.749Z,5.30
2022-10-26T22:48:04.755Z,6.20
2022-10-26T22:50:32.273Z,6.03
2022-10-26T22:52:59.872Z,6.40
2022-10-26T22:55:27.433Z,5.73
2022-10-26T22:57:55.359Z,6.03
2022-10-26T23:00:23.214Z,6.03
2022-10-26T23:02:50.818Z,6.93
2022-10-26T23:05:19.720Z,6.43
2022-10-26T23:07:47.353Z,6.53
2022-10-26T23:10:15.079Z,6.57
2022-10-26T23:12:42.662Z,6.23
2022-10-26T23:15:10.987Z,5.97
2022-10-26T23:17:38.598Z,6.43
2022-10-26T23:20:07.309Z,6.47
2022-10-26T23:22:36.302Z,6.13
2022-10-26T23:25:03.957Z,6.60
2022-10-26T23:27:31.582Z,7.13
2022-10-26T23:29:59.182Z,6.13
2022-10-26T23:32:26.718Z,6.60
2022-10-26T23:34:54.283Z,6.30
2022-10-26T23:37:21.867Z,5.40
2022-10-26T23:39:50.790Z,6.87
2022-10-26T23:42:18.344Z,6.90
2022-10-26T23:44:45.950Z,6.83
2022-10-26T23:47:13.524Z,7.30
2022-10-26T23:49:41.107Z,6.73
2022-10-26T23:52:08.716Z,7.10
2022-10-26T23:54:36.333Z,6.80
2022-10-26T23:57:05.603Z,7.17
2022-10-26T23:59:33.216Z,7.43
